www.cux-wetter.de
Wetterdaten: Sonntag, 11.02.2007
Datum Zeit Temp. A. Feuchte A. Luftdruck Regen Wind Richtung Richtung Sonnenschein Solar Taupunkt Windchill Windben
11.02.2007 00:00 -1,4 C 78 % 1008,5 hPa 0,0 l/m 35,1 km/h (5 Bft) SO 135 0 min 0 W/m -4,7 C -16,8 C 35,1 km/h (5 Bft)
11.02.2007 00:15 -1,7 C 81 % 1008,5 hPa 0,0 l/m 34,9 km/h (5 Bft) SO 135 0 min 0 W/m -4,5 C -17,2 C 34,9 km/h (5 Bft)
11.02.2007 00:30 -1,8 C 84 % 1008,5 hPa 0,0 l/m 35,5 km/h (5 Bft) SO 125 0 min 0 W/m -4,1 C -17,5 C 35,5 km/h (5 Bft)
11.02.2007 00:45 -1,8 C 86 % 1008,5 hPa 0,0 l/m 34,3 km/h (5 Bft) SO 135 0 min 0 W/m -3,8 C -17,2 C 34,3 km/h (5 Bft)
11.02.2007 01:00 -2,0 C 88 % 1008,5 hPa 0,0 l/m 35,7 km/h (5 Bft) SO 140 0 min 0 W/m -3,7 C -17,9 C 35,7 km/h (5 Bft)
11.02.2007 01:15 -2,2 C 90 % 1008,5 hPa 0,0 l/m 34,9 km/h (5 Bft) SO 125 0 min 0 W/m -3,6 C -17,9 C 34,9 km/h (5 Bft)
11.02.2007 01:30 -2,2 C 91 % 1007,5 hPa 0,0 l/m 33,0 km/h (5 Bft) SO 145 0 min 0 W/m -3,5 C -17,4 C 33,0 km/h (5 Bft)
11.02.2007 01:45 -2,1 C 91 % 1007,5 hPa 0,0 l/m 29,5 km/h (5 Bft) O-SO 120 0 min 0 W/m -3,4 C -16,2 C 29,5 km/h (5 Bft)
11.02.2007 02:00 -2,1 C 89 % 1007,5 hPa 0,0 l/m 37,2 km/h (5 Bft) SO 130 0 min 0 W/m -3,7 C -18,4 C 37,2 km/h (5 Bft)
11.02.2007 02:15 -2,1 C 88 % 1007,5 hPa 0,0 l/m 37,4 km/h (5 Bft) SO 130 0 min 0 W/m -3,8 C -18,4 C 37,4 km/h (5 Bft)
11.02.2007 02:30 -2,2 C 89 % 1007,5 hPa 0,0 l/m 31,7 km/h (5 Bft) SO 135 0 min 0 W/m -3,8 C -17,0 C 31,7 km/h (5 Bft)
11.02.2007 02:45 -2,2 C 90 % 1006,5 hPa 0,0 l/m 33,4 km/h (5 Bft) SO 125 0 min 0 W/m -3,6 C -17,5 C 33,4 km/h (5 Bft)
11.02.2007 03:00 -2,2 C 90 % 1006,5 hPa 0,0 l/m 30,3 km/h (5 Bft) SO 140 0 min 0 W/m -3,6 C -16,6 C 30,3 km/h (5 Bft)
11.02.2007 03:15 -2,2 C 90 % 1006,5 hPa 0,0 l/m 31,3 km/h (5 Bft) S-SO 155 0 min 0 W/m -3,6 C -16,9 C 31,3 km/h (5 Bft)
11.02.2007 03:30 -2,3 C 89 % 1006,5 hPa 0,0 l/m 33,4 km/h (5 Bft) S-SO 150 0 min 0 W/m -3,9 C -17,7 C 33,4 km/h (5 Bft)
11.02.2007 03:45 -2,3 C 89 % 1006,5 hPa 0,0 l/m 32,2 km/h (5 Bft) SO 140 0 min 0 W/m -3,9 C -17,3 C 32,2 km/h (5 Bft)
11.02.2007 04:00 -2,3 C 89 % 1005,5 hPa 0,0 l/m 28,8 km/h (5 Bft) SO 135 0 min 0 W/m -3,9 C -16,2 C 28,8 km/h (5 Bft)
11.02.2007 04:15 -2,3 C 88 % 1005,5 hPa 0,0 l/m 35,1 km/h (5 Bft) S-SO 150 0 min 0 W/m -4,0 C -18,1 C 35,1 km/h (5 Bft)
11.02.2007 04:30 -2,3 C 88 % 1005,5 hPa 0,0 l/m 34,6 km/h (5 Bft) SO 145 0 min 0 W/m -4,0 C -18,0 C 34,6 km/h (5 Bft)
11.02.2007 04:45 -2,4 C 88 % 1005,5 hPa 0,0 l/m 30,6 km/h (5 Bft) S-SO 150 0 min 0 W/m -4,1 C -17,0 C 30,6 km/h (5 Bft)
11.02.2007 05:00 -2,5 C 88 % 1004,5 hPa 0,0 l/m 31,1 km/h (5 Bft) S-SO 150 0 min 0 W/m -4,2 C -17,3 C 31,1 km/h (5 Bft)
11.02.2007 05:15 -2,3 C 90 % 1004,5 hPa 0,0 l/m 30,3 km/h (5 Bft) SO 135 0 min 0 W/m -3,7 C -16,7 C 30,3 km/h (5 Bft)
11.02.2007 05:30 -2,2 C 90 % 1004,5 hPa 0,0 l/m 30,6 km/h (5 Bft) SO 145 0 min 0 W/m -3,6 C -16,7 C 30,6 km/h (5 Bft)
11.02.2007 05:45 -2,3 C 91 % 1004,5 hPa 0,0 l/m 28,5 km/h (5 Bft) SO 135 0 min 0 W/m -3,6 C -16,1 C 28,5 km/h (5 Bft)
11.02.2007 06:00 -2,4 C 91 % 1003,5 hPa 0,0 l/m 31,3 km/h (5 Bft) SO 135 0 min 0 W/m -3,7 C -17,2 C 31,3 km/h (5 Bft)
11.02.2007 06:15 -2,4 C 92 % 1003,5 hPa 0,0 l/m 26,6 km/h (4 Bft) SO 140 0 min 0 W/m -3,5 C -15,6 C 26,6 km/h (4 Bft)
11.02.2007 06:30 -2,3 C 92 % 1003,5 hPa 0,0 l/m 27,7 km/h (5 Bft) SO 135 0 min 0 W/m -3,4 C -15,9 C 27,7 km/h (5 Bft)
11.02.2007 06:45 -2,3 C 92 % 1003,5 hPa 0,0 l/m 25,4 km/h (4 Bft) SO 130 0 min 0 W/m -3,4 C -15,0 C 25,4 km/h (4 Bft)
11.02.2007 07:00 -2,3 C 93 % 1002,5 hPa 0,0 l/m 29,3 km/h (5 Bft) SO 140 0 min 0 W/m -3,3 C -16,4 C 29,3 km/h (5 Bft)
11.02.2007 07:15 -2,0 C 94 % 1002,5 hPa 0,0 l/m 30,8 km/h (5 Bft) SO 140 0 min 0 W/m -2,8 C -16,5 C 30,8 km/h (5 Bft)
11.02.2007 07:30 -2,2 C 93 % 1002,5 hPa 0,0 l/m 27,3 km/h (5 Bft) SO 130 0 min 0 W/m -3,2 C -15,6 C 27,3 km/h (5 Bft)
11.02.2007 07:45 -2,2 C 93 % 1002,5 hPa 0,0 l/m 23,6 km/h (4 Bft) SO 140 0 min 0 W/m -3,2 C -14,1 C 23,6 km/h (4 Bft)
11.02.2007 08:00 -2,2 C 94 % 1001,5 hPa 0,0 l/m 25,9 km/h (4 Bft) SO 135 0 min 0 W/m -3,0 C -15,1 C 25,9 km/h (4 Bft)
11.02.2007 08:15 -0,8 C 90 % 1001,5 hPa 0,0 l/m 22,6 km/h (4 Bft) SO 145 0 min 0 W/m -2,2 C -11,8 C 22,6 km/h (4 Bft)
11.02.2007 08:30 -0,6 C 87 % 1001,5 hPa 0,0 l/m 26,9 km/h (4 Bft) SO 135 0 min 0 W/m -2,5 C -13,2 C 26,9 km/h (4 Bft)
11.02.2007 08:45 -0,6 C 86 % 1001,5 hPa 0,0 l/m 24,8 km/h (4 Bft) S-SO 150 0 min 0 W/m -2,6 C -12,5 C 24,8 km/h (4 Bft)
11.02.2007 09:00 -0,2 C 88 % 1001,5 hPa 0,0 l/m 24,1 km/h (4 Bft) SO 135 0 min 0 W/m -1,9 C -11,6 C 24,1 km/h (4 Bft)
11.02.2007 09:15 -1,4 C 88 % 1000,5 hPa 0,0 l/m 24,1 km/h (4 Bft) SO 130 0 min 0 W/m -3,1 C -13,3 C 24,1 km/h (4 Bft)
11.02.2007 09:30 -1,6 C 91 % 1000,5 hPa 0,0 l/m 28,8 km/h (5 Bft) SO 140 0 min 0 W/m -2,9 C -15,3 C 28,8 km/h (5 Bft)
11.02.2007 09:45 -1,5 C 92 % 1000,5 hPa 0,0 l/m 28,3 km/h (5 Bft) SO 140 0 min 0 W/m -2,6 C -15,0 C 28,3 km/h (5 Bft)
11.02.2007 10:00 -1,4 C 92 % 1000,5 hPa 0,0 l/m 31,1 km/h (5 Bft) SO 140 0 min 0 W/m -2,5 C -15,7 C 31,1 km/h (5 Bft)
11.02.2007 10:15 -1,3 C 91 % 1000,5 hPa 0,0 l/m 32,6 km/h (5 Bft) SO 140 0 min 0 W/m -2,6 C -16,0 C 32,6 km/h (5 Bft)
11.02.2007 10:30 -1,3 C 92 % 999,5 hPa 0,0 l/m 31,8 km/h (5 Bft) SO 125 0 min 0 W/m -2,4 C -15,8 C 31,8 km/h (5 Bft)
11.02.2007 10:45 -1,1 C 92 % 999,5 hPa 0,0 l/m 28,7 km/h (5 Bft) SO 140 0 min 0 W/m -2,2 C -14,5 C 28,7 km/h (5 Bft)
11.02.2007 11:00 -1,0 C 93 % 999,5 hPa 0,0 l/m 25,5 km/h (4 Bft) SO 125 0 min 0 W/m -2,0 C -13,3 C 25,5 km/h (4 Bft)
11.02.2007 11:15 -0,8 C 93 % 999,5 hPa 0,0 l/m 26,1 km/h (4 Bft) SO 145 0 min 0 W/m -1,8 C -13,2 C 26,1 km/h (4 Bft)
11.02.2007 11:30 -0,9 C 92 % 998,5 hPa 0,0 l/m 26,4 km/h (4 Bft) SO 125 0 min 0 W/m -2,0 C -13,5 C 26,4 km/h (4 Bft)
11.02.2007 11:45 -0,9 C 92 % 998,5 hPa 0,0 l/m 27,6 km/h (5 Bft) SO 125 0 min 0 W/m -2,0 C -13,9 C 27,6 km/h (5 Bft)
11.02.2007 12:00 -0,9 C 93 % 998,5 hPa 0,0 l/m 30,0 km/h (5 Bft) SO 135 0 min 0 W/m -1,9 C -14,7 C 30,0 km/h (5 Bft)
11.02.2007 12:16 -0,6 C 93 % 998,5 hPa 0,0 l/m 24,1 km/h (4 Bft) SO 140 0 min 0 W/m -1,6 C -12,2 C 24,1 km/h (4 Bft)
11.02.2007 12:30 -0,5 C 92 % 998,5 hPa 0,0 l/m 27,1 km/h (5 Bft) SO 125 0 min 0 W/m -1,6 C -13,2 C 27,1 km/h (5 Bft)
11.02.2007 12:45 -0,4 C 91 % 997,5 hPa 0,0 l/m 25,8 km/h (4 Bft) SO 130 0 min 0 W/m -1,7 C -12,6 C 25,8 km/h (4 Bft)
11.02.2007 13:00 -0,2 C 90 % 997,5 hPa 0,0 l/m 30,5 km/h (5 Bft) SO 135 0 min 0 W/m -1,6 C -13,8 C 30,5 km/h (5 Bft)
11.02.2007 13:15 0,0 C 90 % 997,5 hPa 0,0 l/m 26,8 km/h (4 Bft) SO 135 0 min 0 W/m -1,4 C -12,4 C 26,8 km/h (4 Bft)
11.02.2007 13:30 0,2 C 91 % 997,5 hPa 0,0 l/m 26,9 km/h (4 Bft) SO 135 0 min 0 W/m -1,1 C -12,1 C 26,9 km/h (4 Bft)
11.02.2007 13:45 0,3 C 90 % 996,5 hPa 0,0 l/m 28,6 km/h (5 Bft) SO 140 0 min 0 W/m -1,1 C -12,5 C 28,6 km/h (5 Bft)
11.02.2007 14:01 0,5 C 90 % 996,5 hPa 0,0 l/m 24,8 km/h (4 Bft) SO 130 0 min 0 W/m -0,9 C -11,0 C 24,8 km/h (4 Bft)
11.02.2007 14:15 0,7 C 89 % 996,5 hPa 0,0 l/m 25,3 km/h (4 Bft) SO 135 0 min 0 W/m -0,9 C -10,9 C 25,3 km/h (4 Bft)
11.02.2007 14:30 0,6 C 90 % 996,5 hPa 0,0 l/m 29,0 km/h (5 Bft) SO 130 0 min 0 W/m -0,8 C -12,3 C 29,0 km/h (5 Bft)
11.02.2007 14:45 0,4 C 91 % 996,5 hPa 0,0 l/m 24,2 km/h (4 Bft) SO 130 0 min 0 W/m -0,9 C -10,9 C 24,2 km/h (4 Bft)
11.02.2007 15:00 0,3 C 92 % 996,5 hPa 0,0 l/m 26,1 km/h (4 Bft) O-SO 120 0 min 0 W/m -0,8 C -11,7 C 26,1 km/h (4 Bft)
11.02.2007 15:15 0,3 C 93 % 996,5 hPa 0,0 l/m 26,5 km/h (4 Bft) SO 125 0 min 0 W/m -0,7 C -11,9 C 26,5 km/h (4 Bft)
11.02.2007 15:30 0,2 C 93 % 995,5 hPa 0,0 l/m 29,8 km/h (5 Bft) SO 135 0 min 0 W/m -0,8 C -13,1 C 29,8 km/h (5 Bft)
11.02.2007 15:45 0,2 C 94 % 995,5 hPa 0,0 l/m 21,4 km/h (4 Bft) SO 140 0 min 0 W/m -0,6 C -10,0 C 21,4 km/h (4 Bft)
11.02.2007 16:00 0,3 C 94 % 995,5 hPa 0,3 l/m 21,2 km/h (4 Bft) SO 145 0 min 0 W/m -0,5 C -9,8 C 21,2 km/h (4 Bft)
11.02.2007 16:15 0,3 C 95 % 995,5 hPa 0,0 l/m 22,1 km/h (4 Bft) SO 140 0 min 0 W/m -0,4 C -10,2 C 22,1 km/h (4 Bft)
11.02.2007 16:30 0,3 C 95 % 995,5 hPa 0,0 l/m 27,6 km/h (5 Bft) O-SO 120 0 min 0 W/m -0,4 C -12,2 C 27,6 km/h (5 Bft)
11.02.2007 16:45 0,4 C 95 % 995,5 hPa 0,0 l/m 19,5 km/h (3 Bft) SO 135 0 min 0 W/m -0,3 C -8,9 C 19,5 km/h (3 Bft)
11.02.2007 17:00 0,3 C 95 % 995,5 hPa 0,0 l/m 27,4 km/h (5 Bft) O-SO 120 0 min 0 W/m -0,4 C -12,2 C 27,4 km/h (5 Bft)
11.02.2007 17:15 0,4 C 95 % 995,5 hPa 0,0 l/m 20,6 km/h (4 Bft) SO 130 0 min 0 W/m -0,3 C -9,4 C 20,6 km/h (4 Bft)
11.02.2007 17:30 0,4 C 95 % 995,5 hPa 0,0 l/m 22,7 km/h (4 Bft) SO 140 0 min 0 W/m -0,3 C -10,3 C 22,7 km/h (4 Bft)
11.02.2007 17:45 0,5 C 95 % 995,5 hPa 0,0 l/m 18,8 km/h (3 Bft) SO 140 0 min 0 W/m -0,2 C -8,4 C 18,8 km/h (3 Bft)
11.02.2007 18:00 0,5 C 96 % 995,5 hPa 0,0 l/m 17,0 km/h (3 Bft) SO 140 0 min 0 W/m -0,1 C -7,5 C 17,0 km/h (3 Bft)
11.02.2007 18:16 0,5 C 96 % 995,5 hPa 0,0 l/m 18,6 km/h (3 Bft) SO 125 0 min 0 W/m -0,1 C -8,3 C 18,6 km/h (3 Bft)
11.02.2007 18:30 0,6 C 96 % 995,5 hPa 0,0 l/m 15,6 km/h (3 Bft) SO 135 0 min 0 W/m 0,0 C -6,6 C 15,6 km/h (3 Bft)
11.02.2007 18:45 0,7 C 96 % 995,5 hPa 0,0 l/m 21,3 km/h (4 Bft) SO 145 0 min 0 W/m 0,1 C -9,3 C 21,3 km/h (4 Bft)
11.02.2007 19:00 0,7 C 96 % 995,5 hPa 0,0 l/m 20,3 km/h (4 Bft) SO 145 0 min 0 W/m 0,1 C -8,9 C 20,3 km/h (4 Bft)
11.02.2007 19:15 0,7 C 96 % 995,5 hPa 0,0 l/m 18,5 km/h (3 Bft) S-SO 155 0 min 0 W/m 0,1 C -8,0 C 18,5 km/h (3 Bft)
11.02.2007 19:30 0,7 C 96 % 995,5 hPa 0,0 l/m 14,3 km/h (3 Bft) SO 135 0 min 0 W/m 0,1 C -5,7 C 14,3 km/h (3 Bft)
11.02.2007 19:45 0,7 C 96 % 995,5 hPa 0,0 l/m 21,6 km/h (4 Bft) SO 140 0 min 0 W/m 0,1 C -9,4 C 21,6 km/h (4 Bft)
11.02.2007 20:00 0,7 C 96 % 995,5 hPa 0,0 l/m 16,6 km/h (3 Bft) SO 140 0 min 0 W/m 0,1 C -7,0 C 16,6 km/h (3 Bft)
11.02.2007 20:15 0,7 C 96 % 995,5 hPa 0,0 l/m 14,9 km/h (3 Bft) SO 140 0 min 0 W/m 0,1 C -6,1 C 14,9 km/h (3 Bft)
11.02.2007 20:31 0,7 C 97 % 995,5 hPa 0,0 l/m 16,5 km/h (3 Bft) SO 145 0 min 0 W/m 0,3 C -7,0 C 16,5 km/h (3 Bft)
11.02.2007 20:45 0,7 C 97 % 995,5 hPa 0,0 l/m 14,5 km/h (3 Bft) SO 140 0 min 0 W/m 0,3 C -5,8 C 14,5 km/h (3 Bft)
11.02.2007 21:00 0,7 C 97 % 995,5 hPa 0,0 l/m 15,9 km/h (3 Bft) S-SO 155 0 min 0 W/m 0,3 C -6,7 C 15,9 km/h (3 Bft)
11.02.2007 21:15 0,7 C 97 % 995,5 hPa 0,0 l/m 15,8 km/h (3 Bft) S-SO 150 0 min 0 W/m 0,3 C -6,6 C 15,8 km/h (3 Bft)
11.02.2007 21:30 0,8 C 97 % 995,5 hPa 0,0 l/m 15,6 km/h (3 Bft) S-SO 150 0 min 0 W/m 0,4 C -6,4 C 15,6 km/h (3 Bft)
11.02.2007 21:45 0,9 C 97 % 995,5 hPa 0,0 l/m 13,0 km/h (3 Bft) SO 140 0 min 0 W/m 0,5 C -4,6 C 13,0 km/h (3 Bft)
11.02.2007 22:00 0,9 C 97 % 995,5 hPa 0,0 l/m 12,1 km/h (2 Bft) SO 140 0 min 0 W/m 0,5 C -4,0 C 12,1 km/h (2 Bft)
11.02.2007 22:15 1,0 C 97 % 995,5 hPa 0,0 l/m 16,6 km/h (3 Bft) S-SO 160 0 min 0 W/m 0,6 C -6,7 C 16,6 km/h (3 Bft)
11.02.2007 22:30 0,9 C 97 % 995,5 hPa 0,0 l/m 19,8 km/h (3 Bft) S-SO 150 0 min 0 W/m 0,5 C -8,4 C 19,8 km/h (3 Bft)
11.02.2007 22:45 0,9 C 97 % 995,5 hPa 0,0 l/m 17,1 km/h (3 Bft) SO 140 0 min 0 W/m 0,5 C -7,1 C 17,1 km/h (3 Bft)
11.02.2007 23:00 0,9 C 97 % 995,5 hPa 0,0 l/m 14,1 km/h (3 Bft) SO 140 0 min 0 W/m 0,5 C -5,3 C 14,1 km/h (3 Bft)
11.02.2007 23:15 1,0 C 97 % 995,5 hPa 0,0 l/m 13,0 km/h (3 Bft) S-SO 160 0 min 0 W/m 0,6 C -4,5 C 13,0 km/h (3 Bft)
11.02.2007 23:30 1,1 C 97 % 995,5 hPa 0,0 l/m 12,9 km/h (3 Bft) S-SO 165 0 min 0 W/m 0,7 C -4,3 C 12,9 km/h (3 Bft)
11.02.2007 23:45 1,1 C 97 % 995,5 hPa 0,0 l/m 10,5 km/h (2 Bft) S-SO 160 0 min 0 W/m 0,7 C -2,6 C 10,5 km/h (2 Bft)
_ Min-Zeit 05:00 00:00 15:30 - 23:45 - - - - 00:00 02:15 23:45
Minimum _ -2,5 C 78 % 995,5 hPa - 10,5 km/h (2 Bft) - - - - -4,7 C -18,4 C 10,5 km/h (2 Bft)
_ Max-Zeit 23:30 20:31 00:00 16:00 02:15 - - 00:00 00:00 23:30 23:45 02:15
Maximum _ 1,1 C 97 % 1008,5 hPa 0,3 l/m 37,4 km/h
SO (5 Bft)
- - 0 min 0 W/m 0,7 C -2,6 C 37,4 km/h
SO (5 Bft)
Durchschnitt _ -0,7 C 92 % 999,9 hPa #0,3 l/m 25,3 km/h (4 Bft) SO - #0 min. 0 W/m -1,8 C -12,4 C 25,3 km/h (4 Bft)
copyright by Holger Just